Time;durP1;ratioP1;P1;durP2;ratioP2;P2;SDS_P1;SDS_P2;PMS_P1;PMS_P2;Temp;Humidity;BMP_temperature;BMP_pressure;BME280_temperature;BME280_humidity;BME280_pressure;Samples;Min_cycle;Max_cycle;Signal;HPM_P1;HPM_P2
2021/07/29 00:00:49;;;;;;;4.70;2.58;;;;;;;10.93;84.90;90846.63;4992405;28;20030;-85
2021/07/29 00:03:26;;;;;;;3.88;2.50;;;;;;;10.98;84.30;90844.53;4992590;28;20101;-85
2021/07/29 00:06:04;;;;;;;4.75;2.42;;;;;;;10.91;85.17;90848.78;4977073;28;20026;-85
2021/07/29 00:08:53;;;;;;;3.80;2.80;;;;;;;10.84;85.61;90838.16;4994016;28;20050;-84
2021/07/29 00:11:29;;;;;;;4.28;2.58;;;;;;;10.85;84.87;90840.47;4992497;28;20631;-85
2021/07/29 00:14:04;;;;;;;3.58;2.60;;;;;;;10.79;85.33;90839.16;4992447;28;20049;-85
2021/07/29 00:16:46;;;;;;;2.78;2.20;;;;;;;10.81;84.70;90834.38;4992505;28;20030;-85
2021/07/29 00:19:25;;;;;;;4.53;2.47;;;;;;;10.65;85.74;90833.56;4993399;28;20058;-86
2021/07/29 00:22:02;;;;;;;4.63;2.30;;;;;;;10.70;85.30;90835.94;5008171;28;20030;-86
2021/07/29 00:24:38;;;;;;;3.20;2.38;;;;;;;10.79;84.62;90836.56;4976703;28;20014;-84
2021/07/29 00:27:22;;;;;;;3.47;2.40;;;;;;;10.74;84.68;90842.00;5011148;28;20026;-84
2021/07/29 00:30:03;;;;;;;3.17;2.47;;;;;;;10.73;84.76;90837.88;4995305;28;20124;-85
2021/07/29 00:32:48;;;;;;;4.40;2.67;;;;;;;10.65;84.45;90836.16;5011874;28;20265;-85
2021/07/29 00:35:31;;;;;;;3.90;2.30;;;;;;;10.59;84.74;90833.03;5012878;28;20025;-84
2021/07/29 00:38:08;;;;;;;3.25;2.42;;;;;;;10.53;85.83;90824.69;5012851;28;20029;-85
2021/07/29 00:40:45;;;;;;;4.35;2.45;;;;;;;10.55;85.67;90823.59;5011304;28;20092;-84
2021/07/29 00:43:28;;;;;;;3.08;2.50;;;;;;;10.57;85.55;90829.25;5011664;28;20032;-86
2021/07/29 00:46:02;;;;;;;3.85;2.40;;;;;;;10.55;85.29;90815.78;5012589;28;20026;-85
2021/07/29 00:48:37;;;;;;;3.42;2.20;;;;;;;10.51;85.07;90816.44;4979760;28;20446;-85
2021/07/29 00:51:10;;;;;;;3.40;2.38;;;;;;;10.51;85.34;90816.44;5007551;28;20487;-85
2021/07/29 00:53:52;;;;;;;2.95;2.33;;;;;;;10.45;85.47;90817.72;4991838;28;20030;-84
2021/07/29 00:56:24;;;;;;;3.88;2.67;;;;;;;10.53;85.72;90813.50;4991848;28;20030;-85
2021/07/29 00:59:00;;;;;;;3.20;2.33;;;;;;;10.65;85.75;90821.28;5043105;23;20058;-84
2021/07/29 01:01:42;;;;;;;3.88;2.55;;;;;;;10.53;86.02;90809.06;4980178;28;20030;-84
2021/07/29 01:04:18;;;;;;;2.95;2.28;;;;;;;10.60;85.80;90815.53;5012894;28;20092;-86
2021/07/29 01:06:58;;;;;;;7.35;2.38;;;;;;;10.55;85.66;90805.34;5013360;28;20101;-82
2021/07/29 01:09:34;;;;;;;3.80;2.50;;;;;;;10.42;86.81;90815.78;4979580;28;20058;-85
2021/07/29 01:12:17;;;;;;;5.63;2.55;;;;;;;10.41;86.19;90810.91;5012477;28;20037;-83
2021/07/29 01:14:58;;;;;;;3.75;2.35;;;;;;;10.43;86.35;90819.94;4986353;28;20038;-84
2021/07/29 01:17:32;;;;;;;3.35;2.30;;;;;;;10.40;86.46;90810.16;4987393;28;20051;-84
2021/07/29 01:20:12;;;;;;;3.05;2.47;;;;;;;10.44;86.39;90808.41;4986461;28;20037;-85
2021/07/29 01:22:50;;;;;;;3.20;2.55;;;;;;;10.41;86.15;90816.88;4986712;28;20018;-86
2021/07/29 01:25:29;;;;;;;3.88;2.45;;;;;;;10.34;86.32;90814.06;4986525;28;20021;-84
2021/07/29 01:28:08;;;;;;;3.45;2.58;;;;;;;10.31;86.75;90809.50;5017369;28;20018;-84
2021/07/29 01:30:50;;;;;;;3.88;2.55;;;;;;;10.42;86.65;90802.75;4979245;28;20493;-84
2021/07/29 01:33:27;;;;;;;6.85;2.65;;;;;;;10.43;86.99;90809.50;4979323;28;20052;-83
2021/07/29 01:36:03;;;;;;;3.50;2.13;;;;;;;10.29;86.53;90807.25;4995031;28;20430;-83
2021/07/29 01:38:38;;;;;;;5.65;2.40;;;;;;;10.27;86.89;90806.06;4980146;28;20030;-84
2021/07/29 01:41:17;;;;;;;5.53;2.60;;;;;;;10.28;86.52;90810.16;4963303;28;20116;-83
2021/07/29 01:43:56;;;;;;;4.22;2.38;;;;;;;10.40;86.99;90804.94;4995776;28;20037;-83
2021/07/29 01:46:27;;;;;;;6.10;2.67;;;;;;;10.26;87.28;90809.75;4979419;28;20026;-84
2021/07/29 01:49:04;;;;;;;4.68;2.50;;;;;;;10.48;87.39;90801.44;4978958;28;20017;-83
2021/07/29 01:51:41;;;;;;;3.85;2.38;;;;;;;10.44;86.84;90803.19;4994450;28;20026;-83
2021/07/29 01:54:16;;;;;;;3.15;2.20;;;;;;;10.49;86.92;90805.59;4979090;28;20030;-84
2021/07/29 01:56:50;;;;;;;3.53;2.28;;;;;;;10.38;86.80;90814.94;4979036;28;20445;-83
2021/07/29 01:59:26;;;;;;;3.50;2.25;;;;;;;10.32;86.61;90803.22;4979217;28;20062;-83
2021/07/29 02:02:06;;;;;;;4.38;2.40;;;;;;;10.42;86.45;90809.81;4966875;28;20030;-84
2021/07/29 02:04:44;;;;;;;4.63;2.33;;;;;;;10.26;87.49;90805.28;4998470;28;20025;-85
2021/07/29 02:07:26;;;;;;;4.55;2.58;;;;;;;10.28;87.63;90813.56;4982682;28;20490;-83
2021/07/29 02:10:01;;;;;;;3.53;2.50;;;;;;;10.25;87.90;90813.41;5015534;28;20057;-83
2021/07/29 02:12:39;;;;;;;8.50;2.92;;;;;;;10.21;88.50;90813.31;4998558;28;20056;-84
2021/07/29 02:15:15;;;;;;;4.78;2.60;;;;;;;10.26;88.04;90807.91;4966880;28;20029;-83
2021/07/29 02:17:45;;;;;;;4.78;2.53;;;;;;;10.28;87.77;90810.94;4982471;28;20037;-83
2021/07/29 02:20:24;;;;;;;6.00;2.58;;;;;;;10.41;88.10;90811.66;4982363;28;20101;-83
2021/07/29 02:23:06;;;;;;;3.65;2.45;;;;;;;10.58;88.34;90804.69;4966869;28;20541;-84
2021/07/29 02:25:41;;;;;;;3.40;2.40;;;;;;;10.58;88.22;90810.66;5015750;28;20018;-84
2021/07/29 02:28:14;;;;;;;;;;;;;;;10.85;88.83;90808.41;4998592;28;20030;-84
2021/07/29 02:30:44;;;;;;;3.50;2.45;;;;;;;10.78;86.99;90803.78;4981626;28;20367;-84
2021/07/29 02:33:24;;;;;;;3.72;2.53;;;;;;;10.74;87.42;90811.50;4981584;28;20091;-84
2021/07/29 02:35:55;;;;;;;5.25;2.67;;;;;;;10.70;86.80;90807.25;4998230;28;20026;-83
2021/07/29 02:38:31;;;;;;;3.13;2.60;;;;;;;10.55;87.53;90810.56;4997997;28;20310;-84
2021/07/29 02:41:01;;;;;;;3.38;2.40;;;;;;;10.48;87.47;90817.09;4965867;28;20025;-83
2021/07/29 02:43:37;;;;;;;5.88;2.90;;;;;;;10.48;87.18;90806.66;4982244;28;20552;-84
2021/07/29 02:46:14;;;;;;;3.95;2.70;;;;;;;10.48;87.29;90800.69;4997523;28;20025;-84
2021/07/29 02:48:51;;;;;;;4.38;2.97;;;;;;;10.59;87.50;90801.00;5015277;28;20418;-83
2021/07/29 02:51:27;;;;;;;4.05;2.95;;;;;;;10.66;88.83;90795.97;4997441;28;20504;-83
2021/07/29 02:54:12;;;;;;;5.80;2.95;;;;;;;10.86;88.17;90802.88;4966120;28;20076;-83
2021/07/29 02:56:48;;;;;;;5.05;2.78;;;;;;;10.93;87.88;90804.91;5015041;28;20516;-83
2021/07/29 02:59:20;;;;;;;6.25;3.30;;;;;;;11.04;88.08;90805.19;5014533;28;20445;-84
2021/07/29 03:01:58;;;;;;;4.22;2.80;;;;;;;11.17;87.72;90802.19;4982976;28;20026;-84
2021/07/29 03:04:40;;;;;;;4.80;3.40;;;;;;;11.40;87.29;90812.84;4967046;28;20038;-85
2021/07/29 03:07:17;;;;;;;6.63;3.70;;;;;;;11.47;86.95;90807.78;5000476;28;20022;-84
2021/07/29 03:09:50;;;;;;;7.00;3.35;;;;;;;11.46;87.03;90811.50;4981619;28;20406;-83
2021/07/29 03:12:28;;;;;;;5.05;3.10;;;;;;;11.63;86.41;90809.66;4982297;28;20036;-84
2021/07/29 03:15:07;;;;;;;5.47;3.30;;;;;;;11.79;85.94;90813.03;4982031;28;20379;-83
2021/07/29 03:17:41;;;;;;;4.00;3.00;;;;;;;11.91;85.30;90809.63;4982788;28;20017;-86
2021/07/29 03:20:19;;;;;;;5.85;3.75;;;;;;;12.03;84.76;90808.75;4999047;28;20052;-85
2021/07/29 03:22:51;;;;;;;4.88;3.28;;;;;;;12.06;84.78;90813.31;5021702;28;20044;-86
2021/07/29 03:25:24;;;;;;;4.80;3.08;;;;;;;12.01;85.01;90814.31;4971268;28;20021;-85
2021/07/29 03:28:00;;;;;;;4.63;2.97;;;;;;;12.01;85.15;90819.53;5003610;28;20034;-85
2021/07/29 03:30:37;;;;;;;6.20;3.28;;;;;;;12.02;84.99;90810.63;5002835;28;20052;-84
2021/07/29 03:33:09;;;;;;;4.75;3.08;;;;;;;12.27;84.00;90816.41;4972071;28;20034;-86
2021/07/29 03:35:43;;;;;;;4.65;3.35;;;;;;;12.24;84.35;90814.47;4985862;28;20108;-84
2021/07/29 03:38:21;;;;;;;4.70;3.08;;;;;;;12.24;84.48;90816.31;4997232;28;20036;-83
2021/07/29 03:40:58;;;;;;;5.55;3.10;;;;;;;12.39;83.63;90821.50;4998200;28;20022;-84
2021/07/29 03:43:36;;;;;;;5.10;3.05;;;;;;;12.49;82.71;90815.00;4982558;28;20017;-84
2021/07/29 03:46:12;;;;;;;3.78;2.60;;;;;;;12.28;84.13;90822.38;4983210;28;20034;-83
2021/07/29 03:48:46;;;;;;;5.57;3.13;;;;;;;12.26;84.23;90825.34;4981249;28;20112;-84
2021/07/29 03:51:26;;;;;;;5.55;3.22;;;;;;;12.26;83.97;90827.97;5001423;28;20018;-86
2021/07/29 03:54:01;;;;;;;5.82;3.10;;;;;;;12.48;82.29;90820.59;4989211;28;20026;-85
2021/07/29 03:56:42;;;;;;;4.25;3.10;;;;;;;12.55;82.67;90823.34;5022235;28;20104;-86
2021/07/29 03:59:21;;;;;;;9.35;3.30;;;;;;;12.52;82.56;90824.03;5004858;28;20034;-85
2021/07/29 04:02:02;;;;;;;6.13;3.25;;;;;;;12.53;82.19;90830.75;5021587;28;20026;-85
2021/07/29 04:04:41;;;;;;;6.90;3.35;;;;;;;12.51;82.57;90825.09;5006840;28;20014;-87
2021/07/29 04:07:09;;;;;;;3.95;3.05;;;;;;;12.52;82.67;90818.78;5000222;28;20029;-84
2021/07/29 04:09:47;;;;;;;4.93;3.15;;;;;;;12.66;81.52;90816.47;4966775;28;20129;-84
2021/07/29 04:12:26;;;;;;;8.07;2.90;;;;;;;12.75;80.69;90824.88;5000465;28;20029;-84
2021/07/29 04:14:52;;;;;;;4.60;3.08;;;;;;;12.75;81.05;90824.88;4967686;28;20034;-84
2021/07/29 04:17:27;;;;;;;5.30;2.80;;;;;;;12.69;81.03;90821.03;5000312;28;20076;-85
2021/07/29 04:20:07;;;;;;;3.95;2.63;;;;;;;12.70;81.59;90822.53;5000468;28;20026;-84
2021/07/29 04:22:44;;;;;;;4.07;2.90;;;;;;;12.74;80.23;90817.38;4998030;28;20501;-84
2021/07/29 04:25:20;;;;;;;5.13;2.88;;;;;;;12.68;81.54;90824.72;4997599;28;20490;-84
2021/07/29 04:28:03;;;;;;;4.68;2.90;;;;;;;12.80;80.68;90824.59;4981994;28;20089;-85
2021/07/29 04:30:39;;;;;;;4.20;2.80;;;;;;;12.77;81.06;90825.28;4999136;28;20033;-85
2021/07/29 04:33:16;;;;;;;4.88;2.90;;;;;;;12.79;80.49;90824.94;4981512;28;20410;-84
2021/07/29 04:35:57;;;;;;;6.45;3.20;;;;;;;12.80;80.05;90826.47;4998428;28;20030;-84
2021/07/29 04:38:35;;;;;;;4.63;2.90;;;;;;;12.91;79.74;90833.41;4998620;28;20030;-84
2021/07/29 04:41:14;;;;;;;5.28;3.15;;;;;;;12.97;79.14;90820.06;4997609;28;20089;-84
2021/07/29 04:43:55;;;;;;;4.40;2.97;;;;;;;13.04;79.39;90825.44;4998341;28;20478;-84
2021/07/29 04:46:24;;;;;;;7.45;3.33;;;;;;;13.05;78.98;90830.34;4993510;28;20490;-84
2021/07/29 04:48:58;;;;;;;4.07;2.90;;;;;;;13.11;78.91;90831.56;4996550;28;20038;-85
2021/07/29 04:51:25;;;;;;;;;;;;;;;13.13;78.32;90828.59;4996666;28;20022;-83
2021/07/29 04:53:59;;;;;;;3.65;2.63;;;;;;;13.10;79.29;90835.28;5013649;28;20032;-85
2021/07/29 04:56:37;;;;;;;4.25;2.95;;;;;;;13.16;79.29;90833.91;4979760;28;20382;-84
2021/07/29 04:59:13;;;;;;;3.85;2.97;;;;;;;13.23;78.66;90837.75;4977368;28;20037;-84
2021/07/29 05:01:52;;;;;;;7.32;3.28;;;;;;;13.23;78.16;90830.66;4995460;28;20018;-84
2021/07/29 05:04:29;;;;;;;5.93;3.03;;;;;;;13.22;78.49;90834.41;4994436;28;20018;-85
2021/07/29 05:07:03;;;;;;;4.63;3.00;;;;;;;13.28;78.18;90838.25;4962456;28;20072;-86
2021/07/29 05:09:39;;;;;;;4.20;2.80;;;;;;;13.32;78.25;90844.34;4978392;28;20030;-86
2021/07/29 05:12:19;;;;;;;6.20;3.28;;;;;;;13.41;77.87;90833.63;4978904;28;20046;-84
2021/07/29 05:14:56;;;;;;;5.05;2.70;;;;;;;13.60;76.66;90832.84;4948233;28;20438;-85
2021/07/29 05:17:37;;;;;;;4.63;2.90;;;;;;;13.57;76.26;90830.94;4963642;28;20026;-84
2021/07/29 05:20:16;;;;;;;4.95;2.78;;;;;;;13.66;76.40;90830.72;4978848;28;20026;-85
2021/07/29 05:22:54;;;;;;;6.10;3.03;;;;;;;13.73;76.45;90828.22;4992877;28;20030;-84
2021/07/29 05:25:31;;;;;;;4.95;2.80;;;;;;;13.97;76.43;90832.34;4981651;28;20026;-86
2021/07/29 05:28:03;;;;;;;4.38;2.75;;;;;;;13.99;74.99;90822.25;4996339;28;20026;-86
2021/07/29 05:30:37;;;;;;;5.45;3.38;;;;;;;13.96;75.05;90825.59;4981454;28;20051;-85
2021/07/29 05:33:16;;;;;;;5.60;2.60;;;;;;;13.97;75.50;90824.50;5014927;28;20049;-85
2021/07/29 05:36:05;;;;;;;6.43;3.35;;;;;;;14.02;74.54;90818.94;4983386;28;20128;-85
2021/07/29 05:38:40;;;;;;;4.75;2.83;;;;;;;14.01;75.53;90825.31;4996238;28;20026;-86
2021/07/29 05:41:18;;;;;;;4.97;2.65;;;;;;;13.96;74.62;90818.50;4996466;28;20052;-85
2021/07/29 05:44:01;;;;;;;4.50;2.83;;;;;;;13.98;74.54;90815.50;4981270;28;20441;-85
2021/07/29 05:46:40;;;;;;;6.05;3.28;;;;;;;14.08;74.72;90828.03;4996229;28;20060;-86
2021/07/29 05:49:14;;;;;;;3.95;2.97;;;;;;;14.10;74.06;90821.34;4981173;28;20034;-84
2021/07/29 05:51:50;;;;;;;3.93;2.93;;;;;;;14.11;74.05;90820.22;4981529;28;20018;-86
2021/07/29 05:54:32;;;;;;;6.60;3.30;;;;;;;14.06;74.16;90817.91;4980587;28;20026;-85
2021/07/29 05:57:11;;;;;;;7.45;3.70;;;;;;;14.04;74.41;90827.97;4981257;28;20026;-85
2021/07/29 05:59:51;;;;;;;6.00;3.05;;;;;;;14.16;74.10;90832.25;4978951;28;20371;-86
2021/07/29 06:02:30;;;;;;;6.03;3.05;;;;;;;14.17;73.10;90828.56;5015624;28;20025;-85
2021/07/29 06:05:07;;;;;;;6.55;2.72;;;;;;;14.23;73.24;90829.75;4984712;28;20026;-84
2021/07/29 06:07:46;;;;;;;4.90;2.90;;;;;;;14.29;73.04;90824.97;4967985;28;20029;-85
2021/07/29 06:10:26;;;;;;;5.82;3.28;;;;;;;14.39;72.40;90832.25;5014674;28;20492;-85
2021/07/29 06:13:03;;;;;;;6.15;3.20;;;;;;;14.27;72.35;90824.56;4980919;28;20028;-86
2021/07/29 06:15:41;;;;;;;6.82;2.90;;;;;;;14.33;72.16;90831.78;4966053;28;20033;-85
2021/07/29 06:18:12;;;;;;;5.80;3.00;;;;;;;14.50;72.93;90835.06;5013415;28;20041;-85
2021/07/29 06:20:50;;;;;;;4.63;2.80;;;;;;;14.50;73.28;90837.66;4981241;28;20501;-84
2021/07/29 06:23:18;;;;;;;5.20;2.95;;;;;;;14.60;72.16;90837.06;4996975;28;20018;-85
2021/07/29 06:25:45;;;;;;;5.05;3.10;;;;;;;14.73;71.41;90825.25;4981019;28;20038;-86
2021/07/29 06:28:13;;;;;;;5.70;3.08;;;;;;;14.82;71.51;90831.00;4979245;28;20461;-85
2021/07/29 06:30:42;;;;;;;5.63;3.45;;;;;;;14.79;70.41;90838.81;4978002;28;20029;-85
2021/07/29 06:33:10;;;;;;;5.55;3.22;;;;;;;14.62;71.21;90842.69;4977990;28;20022;-87
2021/07/29 06:35:44;;;;;;;4.72;3.15;;;;;;;14.83;71.34;90835.13;4994354;28;20105;-85
2021/07/29 06:38:19;;;;;;;4.47;3.00;;;;;;;14.88;70.63;90833.31;4994887;28;20173;-86
2021/07/29 06:40:47;;;;;;;4.65;2.90;;;;;;;14.92;70.48;90841.97;4994310;28;20485;-86
2021/07/29 06:43:15;;;;;;;7.32;3.22;;;;;;;14.95;71.26;90836.03;4962145;28;20064;-86
2021/07/29 06:45:45;;;;;;;5.70;2.95;;;;;;;14.97;70.54;90839.03;4979457;28;20022;-85
2021/07/29 06:48:12;;;;;;;3.75;2.97;;;;;;;15.03;69.64;90837.63;4978671;28;20014;-86
2021/07/29 06:50:40;;;;;;;3.75;2.70;;;;;;;15.13;70.20;90850.13;4981204;28;20033;-84
2021/07/29 06:53:07;;;;;;;5.18;2.90;;;;;;;15.06;68.85;90844.78;5015501;28;20063;-86
2021/07/29 06:55:33;;;;;;;6.95;3.15;;;;;;;15.06;70.07;90852.66;4980419;28;20021;-87
2021/07/29 06:57:58;;;;;;;5.90;3.15;;;;;;;15.13;69.24;90842.25;5066720;22;20813;-88
2021/07/29 07:00:26;;;;;;;7.22;3.33;;;;;;;15.21;68.91;90843.84;5017487;28;20484;-87
2021/07/29 07:02:53;;;;;;;4.75;2.83;;;;;;;15.27;69.29;90842.41;5034356;28;20029;-87
2021/07/29 07:05:20;;;;;;;5.75;3.30;;;;;;;15.32;69.08;90843.97;5051814;28;20480;-88
2021/07/29 07:07:46;;;;;;;4.50;3.22;;;;;;;15.40;69.04;90855.28;5017663;28;20027;-87
2021/07/29 07:10:13;;;;;;;5.07;3.05;;;;;;;15.51;68.27;90849.06;5033758;28;20111;-87
2021/07/29 07:12:41;;;;;;;5.75;3.03;;;;;;;15.54;66.86;90858.06;5034232;28;20511;-87
2021/07/29 07:15:07;;;;;;;8.32;3.30;;;;;;;15.65;67.31;90856.31;5034272;28;20025;-87
2021/07/29 07:17:33;;;;;;;5.20;3.10;;;;;;;15.56;66.98;90842.72;5034471;28;20059;-87
2021/07/29 07:20:04;;;;;;;6.80;3.00;;;;;;;15.59;66.93;90854.38;5033678;28;20485;-88
2021/07/29 07:22:30;;;;;;;5.25;2.85;;;;;;;15.30;66.01;90844.31;5025970;28;20122;-88
2021/07/29 07:24:56;;;;;;;5.90;3.33;;;;;;;15.44;66.85;90848.19;4999452;28;20501;-88
2021/07/29 07:27:22;;;;;;;4.88;3.05;;;;;;;15.39;66.37;90843.28;5017528;28;20025;-88
2021/07/29 07:29:48;;;;;;;5.75;3.25;;;;;;;15.64;67.38;90856.69;5033783;28;20021;-89
2021/07/29 07:32:14;;;;;;;3.67;2.85;;;;;;;15.78;66.58;90854.22;5017277;28;20036;-91
2021/07/29 07:34:46;;;;;;;5.78;3.08;;;;;;;16.00;66.43;90849.91;5017514;28;20022;-88
2021/07/29 07:37:18;;;;;;;5.53;3.15;;;;;;;15.78;65.71;90841.84;5017244;28;20025;-89
2021/07/29 07:39:44;;;;;;;5.60;3.20;;;;;;;16.08;64.52;90845.47;5050912;28;20508;-87
2021/07/29 07:42:11;;;;;;;6.88;3.05;;;;;;;15.92;65.18;90848.34;5033489;28;20050;-87
2021/07/29 07:44:36;;;;;;;5.22;3.08;;;;;;;15.96;65.41;90843.88;5017330;28;20489;-87
2021/07/29 07:47:10;;;;;;;5.72;3.08;;;;;;;15.98;64.58;90852.91;5033393;28;20033;-88
2021/07/29 07:49:38;;;;;;;4.60;3.20;;;;;;;15.95;64.04;90843.13;5030106;28;20068;-88
2021/07/29 07:52:08;;;;;;;3.92;3.10;;;;;;;16.17;65.17;90840.69;5033937;28;20033;-87
2021/07/29 07:54:35;;;;;;;5.25;3.13;;;;;;;16.17;64.62;90843.31;5018370;28;20374;-86
2021/07/29 07:57:03;;;;;;;6.35;2.88;;;;;;;16.40;63.49;90845.75;5024078;28;20458;-87
2021/07/29 07:59:29;;;;;;;5.53;3.38;;;;;;;16.60;63.40;90849.63;5016273;28;20562;-88
2021/07/29 08:01:54;;;;;;;5.93;3.10;;;;;;;16.52;62.32;90842.81;5033900;28;20071;-91
2021/07/29 08:04:20;;;;;;;4.25;3.10;;;;;;;16.50;62.60;90852.94;5017226;28;20094;-87
2021/07/29 08:06:46;;;;;;;4.93;3.35;;;;;;;16.43;63.24;90840.53;5033925;28;20548;-88
2021/07/29 08:09:13;;;;;;;5.72;3.20;;;;;;;16.51;64.96;90848.47;5016750;28;20453;-86
2021/07/29 08:11:38;;;;;;;4.63;3.00;;;;;;;16.70;63.30;90854.22;5033320;28;20021;-87
2021/07/29 08:14:04;;;;;;;5.88;3.00;;;;;;;16.68;63.09;90851.22;5034137;28;20021;-87
2021/07/29 08:16:30;;;;;;;4.50;2.97;;;;;;;16.32;62.48;90850.19;5033895;28;20427;-86
2021/07/29 08:18:57;;;;;;;5.18;3.28;;;;;;;16.45;63.53;90848.03;5034329;28;20024;-87
2021/07/29 08:21:23;;;;;;;6.07;3.25;;;;;;;16.58;62.07;90851.13;5031881;28;20469;-87
2021/07/29 08:23:49;;;;;;;4.05;3.00;;;;;;;16.66;62.39;90845.53;5047254;28;20100;-87
2021/07/29 08:26:15;;;;;;;4.43;3.03;;;;;;;16.40;62.24;90849.13;5022075;28;20119;-87
2021/07/29 08:28:42;;;;;;;7.15;3.17;;;;;;;16.40;63.47;90846.50;4996520;28;20029;-88
2021/07/29 08:31:13;;;;;;;4.50;3.30;;;;;;;16.42;63.03;90843.50;5012637;28;20112;-87
2021/07/29 08:33:39;;;;;;;5.22;2.92;;;;;;;16.38;61.33;90842.72;5013265;28;20563;-86
2021/07/29 08:36:05;;;;;;;6.03;3.55;;;;;;;16.47;62.67;90845.81;5013323;28;20075;-88
2021/07/29 08:38:31;;;;;;;6.55;3.25;;;;;;;16.66;63.34;90844.78;5014102;28;20097;-88
2021/07/29 08:40:56;;;;;;;6.30;3.30;;;;;;;16.83;62.10;90843.44;5013278;28;20035;-87
2021/07/29 08:43:22;;;;;;;8.40;3.30;;;;;;;16.86;60.25;90848.72;4996526;28;20109;-87
2021/07/29 08:45:52;;;;;;;5.20;3.22;;;;;;;16.81;61.47;90843.03;5012971;28;20055;-87
2021/07/29 08:48:28;;;;;;;6.07;3.33;;;;;;;17.13;61.36;90832.66;5012805;28;20559;-87
2021/07/29 08:50:55;;;;;;;4.53;3.03;;;;;;;16.95;61.17;90848.38;5012798;28;20030;-88
2021/07/29 08:53:21;;;;;;;6.90;3.33;;;;;;;17.19;60.98;90842.47;5012423;28;20029;-88
2021/07/29 08:55:53;;;;;;;5.88;3.28;;;;;;;17.14;60.27;90850.72;5013472;28;20032;-88
2021/07/29 08:58:19;;;;;;;6.75;3.30;;;;;;;16.94;61.44;90852.13;5015655;28;20400;-87
2021/07/29 09:01:00;;;;;;;6.03;3.38;;;;;;;16.86;61.74;90850.59;5015109;28;20029;-87
2021/07/29 09:03:27;;;;;;;4.78;3.20;;;;;;;16.68;61.55;90848.56;5032046;28;20021;-88
2021/07/29 09:06:00;;;;;;;5.43;3.50;;;;;;;16.62;62.14;90850.03;5016165;28;20033;-87
2021/07/29 09:08:26;;;;;;;6.22;3.53;;;;;;;16.88;61.60;90848.31;5015069;28;20034;-89
2021/07/29 09:10:51;;;;;;;6.25;3.55;;;;;;;16.90;59.77;90840.84;5015361;28;20031;-88
2021/07/29 09:13:18;;;;;;;5.80;3.65;;;;;;;16.70;60.33;90842.94;5015617;28;20017;-87
2021/07/29 09:15:45;;;;;;;6.00;4.05;;;;;;;16.40;59.91;90853.63;5016029;28;20029;-88
2021/07/29 09:18:14;;;;;;;7.13;3.78;;;;;;;16.39;62.06;90865.25;5015503;28;20025;-87
2021/07/29 09:20:40;;;;;;;7.20;3.63;;;;;;;16.66;62.02;90861.31;5015718;28;20568;-86
2021/07/29 09:23:18;;;;;;;5.53;3.78;;;;;;;16.78;60.97;90856.91;5031808;28;20017;-87
2021/07/29 09:25:45;;;;;;;4.78;3.40;;;;;;;16.43;60.87;90860.78;5011929;28;20030;-89
2021/07/29 09:28:11;;;;;;;7.75;3.60;;;;;;;16.58;61.21;90857.16;4995762;28;20093;-87
2021/07/29 09:30:36;;;;;;;5.65;3.25;;;;;;;16.88;60.79;90858.84;4995873;28;20496;-87
2021/07/29 09:33:13;;;;;;;4.60;3.30;;;;;;;17.12;60.89;90852.22;5012078;28;20453;-88
2021/07/29 09:35:45;;;;;;;5.43;3.80;;;;;;;17.30;59.34;90855.69;5012528;28;20029;-86
2021/07/29 09:38:30;;;;;;;4.93;3.75;;;;;;;17.36;58.76;90851.56;5029327;28;20432;-88
2021/07/29 09:41:06;;;;;;;5.15;3.42;;;;;;;17.51;59.37;90857.66;5011610;28;20034;-88
2021/07/29 09:43:36;;;;;;;6.68;3.35;;;;;;;17.55;58.87;90853.13;4995753;28;20385;-87
2021/07/29 09:46:24;;;;;;;5.75;3.78;;;;;;;17.66;58.76;90848.66;4995574;28;20030;-87
2021/07/29 09:48:49;;;;;;;4.55;3.60;;;;;;;17.73;57.31;90855.81;5014561;28;20025;-88
2021/07/29 09:51:15;;;;;;;8.10;3.83;;;;;;;17.61;57.62;90849.03;4995191;28;20025;-88
2021/07/29 09:53:41;;;;;;;7.00;3.60;;;;;;;17.37;58.16;90847.81;4995554;28;20021;-87
2021/07/29 09:56:07;;;;;;;4.82;3.53;;;;;;;17.43;58.14;90840.31;4999483;28;20197;-87
2021/07/29 09:58:38;;;;;;;6.32;3.83;;;;;;;17.57;61.11;90853.53;5015134;28;20032;-88
2021/07/29 10:01:10;;;;;;;5.57;3.65;;;;;;;17.50;59.11;90848.25;5030866;28;20036;-86
2021/07/29 10:03:42;;;;;;;6.63;4.03;;;;;;;17.37;57.84;90844.44;5015096;28;20477;-88
2021/07/29 10:06:20;;;;;;;5.28;3.75;;;;;;;17.43;57.94;90856.13;5016176;28;20040;-88
2021/07/29 10:08:55;;;;;;;5.13;3.30;;;;;;;17.30;58.77;90847.03;5031708;28;20456;-87
2021/07/29 10:11:28;;;;;;;5.65;3.50;;;;;;;17.29;58.94;90845.53;5014895;28;20374;-89
2021/07/29 10:13:55;;;;;;;5.20;3.70;;;;;;;17.35;58.98;90847.44;5032299;28;20032;-88
2021/07/29 10:16:47;;;;;;;6.43;4.10;;;;;;;17.56;59.55;90843.34;5031288;28;20464;-87
2021/07/29 10:19:18;;;;;;;5.82;3.80;;;;;;;17.69;59.05;90847.16;5048894;28;20535;-88
2021/07/29 10:21:47;;;;;;;4.25;3.50;;;;;;;17.86;60.35;90840.44;5035236;28;20032;-87
2021/07/29 10:24:13;;;;;;;5.40;3.60;;;;;;;18.04;60.18;90843.88;5020005;28;20029;-86
2021/07/29 10:27:01;;;;;;;5.40;3.70;;;;;;;18.31;58.92;90844.28;5037223;28;20048;-86
2021/07/29 10:29:30;;;;;;;6.10;3.67;;;;;;;18.12;57.03;90842.72;5054207;28;20031;-87
2021/07/29 10:32:02;;;;;;;5.60;3.50;;;;;;;17.96;57.51;90850.25;5053312;28;20074;-88
2021/07/29 10:34:28;;;;;;;8.40;3.90;;;;;;;17.63;57.54;90832.81;5035885;28;20075;-88
2021/07/29 10:36:58;;;;;;;7.53;4.10;;;;;;;17.72;57.13;90827.22;5019598;28;20508;-88
2021/07/29 10:39:23;;;;;;;4.88;3.72;;;;;;;17.80;57.61;90841.94;5019255;28;20048;-87
2021/07/29 10:41:55;;;;;;;5.60;3.83;;;;;;;17.79;58.23;90835.16;5019020;28;20488;-87
2021/07/29 10:44:35;;;;;;;5.63;3.80;;;;;;;17.63;57.70;90844.16;5020425;28;20021;-88
2021/07/29 10:47:07;;;;;;;5.95;4.03;;;;;;;17.81;56.56;90846.84;5053739;28;20029;-88
2021/07/29 10:49:55;;;;;;;8.10;4.30;;;;;;;18.02;59.28;90842.72;5021089;28;20040;-88
2021/07/29 10:52:22;;;;;;;6.38;3.80;;;;;;;18.04;59.15;90837.84;5054053;28;20079;-88
2021/07/29 10:54:47;;;;;;;5.68;4.05;;;;;;;18.20;55.54;90832.19;5019190;28;20436;-87
2021/07/29 10:57:14;;;;;;;6.57;3.92;;;;;;;18.23;56.15;90837.47;5052156;28;20067;-86
2021/07/29 10:59:41;;;;;;;5.65;3.85;;;;;;;18.21;56.69;90833.72;5034704;28;20118;-86
2021/07/29 11:02:11;;;;;;;5.10;3.85;;;;;;;18.12;55.70;90836.72;5035132;28;20029;-87
2021/07/29 11:04:58;;;;;;;8.32;4.22;;;;;;;18.08;54.95;90835.97;5032718;28;20501;-87
2021/07/29 11:07:24;;;;;;;4.90;3.80;;;;;;;18.08;56.80;90836.72;5032557;28;20040;-87
2021/07/29 11:10:04;;;;;;;6.85;3.90;;;;;;;18.37;56.56;90826.16;4999037;28;20025;-87
2021/07/29 11:12:30;;;;;;;5.45;3.65;;;;;;;18.46;56.18;90828.44;5017175;28;20498;-88
2021/07/29 11:14:58;;;;;;;9.48;4.32;;;;;;;18.40;54.29;90820.13;5033839;28;20037;-88
2021/07/29 11:17:27;;;;;;;7.45;4.07;;;;;;;18.46;54.00;90816.00;5015448;28;20485;-88
2021/07/29 11:19:53;;;;;;;5.95;3.75;;;;;;;18.30;54.71;90815.63;4998961;28;20033;-89
2021/07/29 11:22:21;;;;;;;7.80;4.00;;;;;;;18.19;55.33;90820.16;5032322;28;20549;-86
2021/07/29 11:24:47;;;;;;;5.40;3.97;;;;;;;18.22;54.87;90824.66;5016350;28;20490;-90
2021/07/29 11:27:13;;;;;;;7.32;4.22;;;;;;;18.33;56.23;90823.53;5019749;28;20021;-88
2021/07/29 11:29:59;;;;;;;5.38;3.67;;;;;;;18.57;57.34;90824.66;5018226;28;20021;-86
2021/07/29 11:32:44;;;;;;;5.32;3.72;;;;;;;18.73;57.07;90821.66;5034545;28;20021;-87
2021/07/29 11:35:12;;;;;;;6.32;4.05;;;;;;;19.03;54.78;90820.44;5015720;28;20026;-86
2021/07/29 11:37:45;;;;;;;5.80;3.80;;;;;;;18.71;54.06;90816.00;5002324;28;20040;-87
2021/07/29 11:40:22;;;;;;;7.90;4.03;;;;;;;18.92;55.20;90807.28;5015495;28;20033;-86
2021/07/29 11:42:48;;;;;;;5.35;3.90;;;;;;;18.83;53.50;90812.19;5016210;28;20069;-87
2021/07/29 11:45:22;;;;;;;6.90;4.03;;;;;;;18.61;53.20;90817.47;5031735;28;20036;-86
2021/07/29 11:47:49;;;;;;;4.40;3.17;;;;;;;18.62;53.65;90805.03;5031881;28;20017;-87
2021/07/29 11:50:15;;;;;;;6.50;3.33;;;;;;;18.82;53.91;90814.09;5015297;28;20035;-85
2021/07/29 11:52:50;;;;;;;5.03;3.45;;;;;;;19.01;52.59;90810.28;4999308;28;20021;-86
2021/07/29 11:55:18;;;;;;;4.85;3.45;;;;;;;19.05;52.49;90812.91;5001675;28;20033;-85
2021/07/29 11:57:45;;;;;;;4.88;3.40;;;;;;;18.98;51.49;90808.41;5029502;28;20033;-86
2021/07/29 12:00:14;;;;;;;5.90;3.70;;;;;;;19.11;51.39;90801.56;5014657;28;20079;-85
2021/07/29 12:02:43;;;;;;;5.38;3.70;;;;;;;19.10;52.60;90817.78;5014836;28;20557;-87